createdAt,value
2018-04-10T00:00:19.738Z,0.60
2018-04-10T00:02:48.138Z,0.50
2018-04-10T00:05:16.498Z,0.40
2018-04-10T00:07:44.198Z,0.60
2018-04-10T00:10:11.857Z,0.50
2018-04-10T00:12:39.497Z,0.60
2018-04-10T00:15:07.281Z,0.60
2018-04-10T00:17:34.909Z,0.60
2018-04-10T00:20:03.308Z,0.53
2018-04-10T00:22:31.668Z,0.60
2018-04-10T00:24:59.246Z,0.40
2018-04-10T00:27:27.519Z,0.60
2018-04-10T00:29:55.134Z,0.40
2018-04-10T00:32:23.580Z,0.60
2018-04-10T00:34:51.221Z,0.40
2018-04-10T00:37:18.826Z,0.50
2018-04-10T00:39:46.401Z,0.67
2018-04-10T00:42:14.016Z,0.40
2018-04-10T00:44:41.639Z,0.50
2018-04-10T00:47:09.233Z,0.40
2018-04-10T00:49:36.936Z,0.70
2018-04-10T00:52:05.285Z,0.50
2018-04-10T00:54:32.933Z,0.40
2018-04-10T00:57:00.590Z,0.60
2018-04-10T00:59:28.217Z,0.50
2018-04-10T01:01:55.809Z,0.60
2018-04-10T01:04:23.390Z,0.40
2018-04-10T01:06:52.011Z,0.47
2018-04-10T01:09:19.643Z,0.60
2018-04-10T01:11:47.252Z,0.53
2018-04-10T01:14:14.840Z,0.50
2018-04-10T01:16:42.457Z,0.47
2018-04-10T01:19:10.042Z,0.60
2018-04-10T01:21:37.731Z,0.50
2018-04-10T01:24:05.299Z,0.53
2018-04-10T01:26:32.898Z,0.50
2018-04-10T01:29:00.470Z,0.53
2018-04-10T01:31:28.258Z,0.50
2018-04-10T01:33:55.899Z,0.40
2018-04-10T01:36:23.520Z,0.43
2018-04-10T01:38:51.104Z,0.67
2018-04-10T01:41:18.726Z,0.40
2018-04-10T01:43:47.088Z,0.50
2018-04-10T01:46:15.116Z,0.50
2018-04-10T01:48:42.731Z,0.50
2018-04-10T01:51:11.142Z,0.57
2018-04-10T01:53:39.706Z,0.57
2018-04-10T01:56:07.311Z,0.40
2018-04-10T01:58:34.892Z,0.57
2018-04-10T02:01:02.524Z,0.50
2018-04-10T02:03:30.190Z,0.43
2018-04-10T02:05:57.789Z,0.50
2018-04-10T02:08:26.144Z,0.57
2018-04-10T02:10:54.568Z,0.50
2018-04-10T02:13:22.148Z,0.40
2018-04-10T02:15:49.755Z,0.40
2018-04-10T02:18:18.107Z,0.50
2018-04-10T02:20:45.748Z,0.50
2018-04-10T02:23:13.346Z,0.60
2018-04-10T02:25:40.960Z,0.50
2018-04-10T02:28:08.525Z,0.40
2018-04-10T02:30:36.181Z,0.50
2018-04-10T02:33:03.742Z,0.60
2018-04-10T02:35:31.346Z,0.50
2018-04-10T02:37:59.689Z,0.50
2018-04-10T02:40:27.293Z,0.50
2018-04-10T02:42:55.638Z,0.63
2018-04-10T02:45:23.487Z,0.50
2018-04-10T02:47:51.078Z,0.40
2018-04-10T02:50:19.461Z,0.60
2018-04-10T02:52:47.841Z,0.40
2018-04-10T02:55:16.257Z,0.50
2018-04-10T02:57:43.825Z,0.43
2018-04-10T03:00:11.417Z,0.50
2018-04-10T03:02:39.094Z,0.70
2018-04-10T03:05:07.453Z,0.50
2018-04-10T03:07:35.141Z,0.30
2018-04-10T03:10:02.753Z,0.50
2018-04-10T03:12:30.358Z,0.40
2018-04-10T03:14:57.933Z,0.50
2018-04-10T03:17:25.512Z,0.60
2018-04-10T03:19:53.085Z,0.50
2018-04-10T03:22:20.682Z,0.43
2018-04-10T03:24:49.043Z,0.63
2018-04-10T03:27:16.629Z,0.50
2018-04-10T03:29:44.209Z,0.60
2018-04-10T03:32:11.796Z,0.53
2018-04-10T03:34:39.430Z,0.50
2018-04-10T03:37:07.124Z,0.30
2018-04-10T03:39:34.705Z,0.60
2018-04-10T03:42:03.035Z,0.60
2018-04-10T03:44:30.667Z,0.80
2018-04-10T03:46:58.349Z,0.40
2018-04-10T03:49:26.087Z,0.50
2018-04-10T03:51:53.689Z,0.30
2018-04-10T03:54:21.304Z,0.60
2018-04-10T03:56:48.984Z,0.47
2018-04-10T03:59:16.554Z,0.40
2018-04-10T04:01:44.935Z,0.50
2018-04-10T04:04:12.652Z,0.60
2018-04-10T04:06:40.254Z,0.40
2018-04-10T04:09:09.101Z,0.30
2018-04-10T04:11:37.303Z,0.57
2018-04-10T04:14:06.192Z,0.40
2018-04-10T04:16:45.948Z,0.50
2018-04-10T04:19:25.290Z,0.60
2018-04-10T04:22:04.611Z,0.37
2018-04-10T04:24:33.389Z,0.40
2018-04-10T04:27:00.957Z,0.53
2018-04-10T04:29:28.510Z,0.53
2018-04-10T04:31:56.090Z,0.40
2018-04-10T04:34:24.030Z,0.60
2018-04-10T04:36:52.308Z,0.50
2018-04-10T04:39:20.269Z,0.50
2018-04-10T04:41:48.002Z,0.50
2018-04-10T04:44:18.509Z,0.30
2018-04-10T04:46:49.843Z,0.60
2018-04-10T04:49:17.891Z,0.40
2018-04-10T04:51:46.357Z,0.60
2018-04-10T04:54:14.280Z,0.50
2018-04-10T04:56:43.093Z,0.40
2018-04-10T04:59:10.760Z,0.43
2018-04-10T05:01:39.483Z,0.50
2018-04-10T05:04:07.170Z,0.43
2018-04-10T05:06:34.742Z,0.60
2018-04-10T05:09:02.361Z,0.40
2018-04-10T05:11:30.193Z,0.50
2018-04-10T05:13:57.845Z,0.60
2018-04-10T05:16:25.417Z,0.50
2018-04-10T05:18:53.055Z,0.33
2018-04-10T05:21:20.647Z,0.40
2018-04-10T05:23:48.254Z,0.50
2018-04-10T05:26:16.737Z,0.53
2018-04-10T05:28:45.189Z,0.63
2018-04-10T05:31:12.773Z,0.50
2018-04-10T05:33:40.446Z,0.50
2018-04-10T05:36:08.129Z,0.40
2018-04-10T05:38:35.752Z,0.73
2018-04-10T05:41:04.085Z,0.50
2018-04-10T05:43:31.728Z,0.70
2018-04-10T05:45:59.351Z,0.40
2018-04-10T05:48:27.770Z,0.60
2018-04-10T05:50:55.397Z,0.57
2018-04-10T05:53:23.077Z,0.60
2018-04-10T05:55:50.835Z,0.60
2018-04-10T05:58:18.484Z,0.43
2018-04-10T06:00:46.288Z,0.50
2018-04-10T06:03:13.860Z,0.30
2018-04-10T06:05:41.580Z,0.60
2018-04-10T06:08:09.269Z,0.50
2018-04-10T06:10:36.893Z,0.60
2018-04-10T06:13:04.517Z,0.50
2018-04-10T06:15:32.865Z,0.50
2018-04-10T06:18:00.430Z,0.63
2018-04-10T06:20:28.788Z,0.60
2018-04-10T06:22:56.515Z,0.50
2018-04-10T06:25:24.158Z,0.40
2018-04-10T06:27:52.513Z,0.50
2018-04-10T06:30:20.865Z,0.50
2018-04-10T06:32:48.553Z,0.40
2018-04-10T06:35:16.225Z,0.40
2018-04-10T06:37:43.912Z,0.67
2018-04-10T06:40:11.654Z,0.50
2018-04-10T06:42:40.001Z,0.60
2018-04-10T06:45:07.813Z,0.60
2018-04-10T06:47:35.417Z,0.50
2018-04-10T06:50:03.097Z,0.60
2018-04-10T06:52:30.705Z,0.40
2018-04-10T06:54:58.339Z,0.60
2018-04-10T06:57:26.469Z,0.50
2018-04-10T06:59:54.879Z,0.50
2018-04-10T07:02:23.450Z,0.50
2018-04-10T07:04:51.067Z,0.30
2018-04-10T07:07:18.685Z,0.73
2018-04-10T07:09:46.330Z,0.50
2018-04-10T07:12:13.933Z,0.43
2018-04-10T07:14:41.618Z,0.53
2018-04-10T07:17:09.228Z,0.67
2018-04-10T07:19:37.870Z,0.60
2018-04-10T07:22:05.434Z,0.50
2018-04-10T07:24:33.045Z,0.60
2018-04-10T07:27:00.644Z,0.60
2018-04-10T07:29:28.225Z,0.60
2018-04-10T07:31:55.893Z,0.43
2018-04-10T07:34:23.640Z,0.60
2018-04-10T07:36:51.266Z,0.57
2018-04-10T07:39:18.859Z,0.50
2018-04-10T07:41:46.417Z,0.50
2018-04-10T07:44:14.014Z,0.60
2018-04-10T07:46:41.584Z,0.47
2018-04-10T07:49:10.565Z,0.60
2018-04-10T07:51:38.137Z,0.50
2018-04-10T07:54:05.755Z,0.87
2018-04-10T07:56:33.377Z,0.60
2018-04-10T07:59:01.054Z,0.60
2018-04-10T08:01:28.631Z,0.50
2018-04-10T08:03:56.257Z,0.70
2018-04-10T08:06:23.863Z,0.63
2018-04-10T08:08:52.198Z,0.70
2018-04-10T08:11:19.865Z,0.60
2018-04-10T08:13:47.504Z,0.63
2018-04-10T08:16:15.113Z,0.60
2018-04-10T08:18:43.484Z,0.50
2018-04-10T08:21:11.880Z,0.50
2018-04-10T08:23:40.857Z,0.77
2018-04-10T08:26:09.224Z,0.60
2018-04-10T08:28:37.637Z,0.70
2018-04-10T08:31:05.238Z,0.70
2018-04-10T08:33:32.795Z,0.60
2018-04-10T08:36:00.382Z,0.60
2018-04-10T08:38:28.738Z,0.60
2018-04-10T08:40:56.340Z,0.70
2018-04-10T08:43:23.901Z,0.43
2018-04-10T08:45:51.458Z,0.50
2018-04-10T08:48:19.033Z,0.67
2018-04-10T08:50:46.589Z,0.70
2018-04-10T08:53:14.160Z,0.60
2018-04-10T08:55:41.757Z,0.70
2018-04-10T08:58:10.081Z,0.70
2018-04-10T09:00:38.162Z,0.60
2018-04-10T09:03:05.726Z,0.67
2018-04-10T09:05:33.288Z,0.70
2018-04-10T09:08:00.924Z,0.70
2018-04-10T09:10:28.545Z,0.60
2018-04-10T09:12:56.114Z,0.70
2018-04-10T09:15:23.701Z,0.80
2018-04-10T09:17:51.322Z,0.60
2018-04-10T09:20:18.938Z,0.67
2018-04-10T09:22:46.577Z,0.70
2018-04-10T09:25:14.165Z,0.60
2018-04-10T09:27:41.741Z,0.57
2018-04-10T09:30:10.159Z,0.77
2018-04-10T09:32:38.073Z,0.73
2018-04-10T09:35:05.653Z,0.70
2018-04-10T09:37:33.280Z,0.50
2018-04-10T09:40:00.937Z,0.70
2018-04-10T09:42:28.557Z,0.60
2018-04-10T09:44:56.246Z,0.50
2018-04-10T09:47:23.825Z,0.63
2018-04-10T09:49:51.408Z,0.67
2018-04-10T09:52:19.736Z,0.60
2018-04-10T09:54:47.342Z,0.80
2018-04-10T09:57:14.915Z,0.63
2018-04-10T09:59:42.558Z,0.70
2018-04-10T10:02:10.947Z,0.40
2018-04-10T10:04:39.367Z,0.67
2018-04-10T10:07:06.929Z,0.70
2018-04-10T10:09:34.564Z,0.63
2018-04-10T10:12:02.248Z,0.60
2018-04-10T10:14:29.873Z,0.70
2018-04-10T10:16:58.221Z,0.70
2018-04-10T10:19:25.785Z,0.70
2018-04-10T10:21:53.386Z,0.57
2018-04-10T10:24:21.674Z,0.90
2018-04-10T10:26:50.151Z,0.60
2018-04-10T10:29:17.700Z,0.90
2018-04-10T10:31:45.266Z,0.70
2018-04-10T10:34:12.831Z,0.97
2018-04-10T10:36:40.401Z,0.60
2018-04-10T10:39:08.031Z,0.63
2018-04-10T10:41:35.605Z,0.70
2018-04-10T10:44:03.188Z,0.70
2018-04-10T10:46:31.577Z,0.87
2018-04-10T10:48:59.148Z,0.70
2018-04-10T10:51:27.474Z,0.70
2018-04-10T10:53:55.041Z,0.70
2018-04-10T10:56:22.615Z,0.60
2018-04-10T10:58:50.189Z,0.60
2018-04-10T11:01:17.765Z,0.73
2018-04-10T11:03:46.104Z,0.70
2018-04-10T11:06:13.681Z,0.90
2018-04-10T11:08:41.250Z,0.77
2018-04-10T11:11:09.615Z,0.60
2018-04-10T11:13:37.337Z,0.80
2018-04-10T11:16:04.932Z,0.60
2018-04-10T11:18:32.498Z,0.80
2018-04-10T11:21:00.084Z,0.60
2018-04-10T11:23:27.714Z,0.60
2018-04-10T11:25:56.064Z,0.43
2018-04-10T11:28:23.624Z,0.77
2018-04-10T11:30:51.218Z,0.50
2018-04-10T11:33:19.593Z,0.70
2018-04-10T11:35:47.942Z,0.80
2018-04-10T11:38:15.688Z,0.50
2018-04-10T11:40:43.286Z,0.70
2018-04-10T11:43:11.612Z,0.80
2018-04-10T11:45:39.352Z,0.80
2018-04-10T11:48:06.923Z,0.50
2018-04-10T11:50:34.500Z,0.77
2018-04-10T11:53:02.127Z,0.80
2018-04-10T11:55:29.818Z,0.70
2018-04-10T11:57:57.620Z,0.63
2018-04-10T12:00:25.969Z,0.73
2018-04-10T12:02:53.542Z,0.63
2018-04-10T12:05:21.127Z,0.60
2018-04-10T12:07:49.467Z,0.80
2018-04-10T12:10:17.219Z,0.50
2018-04-10T12:12:44.840Z,0.67
2018-04-10T12:15:12.395Z,0.40
2018-04-10T12:17:39.986Z,0.70
2018-04-10T12:20:07.560Z,0.60
2018-04-10T12:22:35.129Z,0.70
2018-04-10T12:25:02.878Z,0.70
2018-04-10T12:27:30.437Z,0.80
2018-04-10T12:29:58.098Z,0.70
2018-04-10T12:32:25.661Z,0.60
2018-04-10T12:34:53.220Z,0.87
2018-04-10T12:37:20.982Z,0.63
2018-04-10T12:39:48.757Z,0.80
2018-04-10T12:42:16.317Z,0.70
2018-04-10T12:44:44.682Z,0.73
2018-04-10T12:47:12.260Z,0.50
2018-04-10T12:49:40.584Z,0.60
2018-04-10T12:52:08.145Z,0.57
2018-04-10T12:54:35.756Z,0.60
2018-04-10T12:57:04.183Z,0.67
2018-04-10T12:59:31.776Z,0.63
2018-04-10T13:01:59.328Z,0.80
2018-04-10T13:04:27.664Z,0.80
2018-04-10T13:06:55.342Z,0.50
2018-04-10T13:09:22.929Z,0.60
2018-04-10T13:11:50.541Z,0.67
2018-04-10T13:14:18.097Z,0.50
2018-04-10T13:16:45.741Z,0.80
2018-04-10T13:19:13.435Z,0.70
2018-04-10T13:21:41.113Z,0.70
2018-04-10T13:25:33.642Z,0.73
2018-04-10T13:28:01.219Z,0.80
2018-04-10T13:30:29.109Z,1.07
2018-04-10T13:32:57.431Z,0.70
2018-04-10T13:35:25.186Z,0.70
2018-04-10T13:37:52.903Z,0.63
2018-04-10T13:40:22.884Z,0.87
2018-04-10T13:42:50.515Z,0.90
2018-04-10T13:45:18.077Z,0.70
2018-04-10T13:47:45.711Z,0.90
2018-04-10T13:50:14.075Z,0.87
2018-04-10T13:52:42.440Z,0.60
2018-04-10T13:55:10.009Z,0.73
2018-04-10T13:57:39.133Z,0.67
2018-04-10T14:00:06.955Z,0.77
2018-04-10T14:02:34.512Z,0.77
2018-04-10T14:05:02.105Z,0.67
2018-04-10T14:07:29.798Z,0.73
2018-04-10T14:09:57.382Z,0.90
2018-04-10T14:12:25.180Z,0.70
2018-04-10T14:14:53.548Z,0.83
2018-04-10T14:17:21.950Z,0.83
2018-04-10T14:19:50.855Z,0.80
2018-04-10T14:22:19.643Z,0.73
2018-04-10T14:24:47.788Z,0.80
2018-04-10T14:27:15.532Z,0.90
2018-04-10T14:29:43.996Z,0.90
2018-04-10T14:32:12.326Z,0.90
2018-04-10T14:34:40.069Z,1.00
2018-04-10T14:37:07.803Z,0.70
2018-04-10T14:39:35.465Z,0.60
2018-04-10T14:42:03.035Z,0.80
2018-04-10T14:44:31.379Z,0.57
2018-04-10T14:46:59.610Z,0.70
2018-04-10T14:49:27.297Z,0.90
2018-04-10T14:51:54.912Z,0.63
2018-04-10T14:54:22.541Z,0.80
2018-04-10T14:56:50.274Z,0.70
2018-04-10T14:59:18.044Z,0.60
2018-04-10T15:01:45.866Z,0.77
2018-04-10T15:04:13.507Z,0.80
2018-04-10T15:06:41.141Z,0.67
2018-04-10T15:09:09.757Z,0.70
2018-04-10T15:11:38.376Z,0.80
2018-04-10T15:14:06.046Z,0.90
2018-04-10T15:16:33.621Z,0.63
2018-04-10T15:19:01.251Z,0.80
2018-04-10T15:21:28.909Z,0.80
2018-04-10T15:23:57.122Z,1.00
2018-04-10T15:26:24.787Z,0.80
2018-04-10T15:28:52.486Z,0.67
2018-04-10T15:31:20.183Z,0.87
2018-04-10T15:33:47.777Z,0.60
2018-04-10T15:36:15.592Z,0.90
2018-04-10T15:38:43.249Z,1.00
2018-04-10T15:41:10.812Z,0.67
2018-04-10T15:43:39.290Z,0.77
2018-04-10T15:46:08.692Z,0.87
2018-04-10T15:48:37.374Z,0.70
2018-04-10T15:51:04.960Z,0.93
2018-04-10T15:53:32.514Z,0.80
2018-04-10T15:56:00.387Z,0.90
2018-04-10T15:58:28.102Z,0.77
2018-04-10T16:00:55.675Z,0.90
2018-04-10T16:03:23.289Z,0.60
2018-04-10T16:05:52.061Z,0.80
2018-04-10T16:08:19.668Z,0.97
2018-04-10T16:10:47.254Z,0.80
2018-04-10T16:13:14.906Z,0.77
2018-04-10T16:15:42.657Z,0.83
2018-04-10T16:18:10.231Z,1.00
2018-04-10T16:20:40.298Z,0.73
2018-04-10T16:23:08.063Z,0.90
2018-04-10T16:25:36.609Z,0.97
2018-04-10T16:28:04.179Z,0.77
2018-04-10T16:30:31.750Z,0.80
2018-04-10T16:33:00.229Z,0.80
2018-04-10T16:35:28.570Z,0.77
2018-04-10T16:37:56.213Z,0.70
2018-04-10T16:40:23.770Z,0.77
2018-04-10T16:42:51.373Z,1.00
2018-04-10T16:45:18.955Z,0.70
2018-04-10T16:47:47.483Z,0.90
2018-04-10T16:50:15.103Z,0.70
2018-04-10T16:52:42.664Z,0.90
2018-04-10T16:55:10.227Z,0.77
2018-04-10T16:57:37.924Z,0.90
2018-04-10T17:00:05.550Z,0.50
2018-04-10T17:02:34.116Z,0.87
2018-04-10T17:05:01.718Z,1.00
2018-04-10T17:07:29.288Z,0.90
2018-04-10T17:09:56.886Z,0.80
2018-04-10T17:12:24.727Z,0.70
2018-04-10T17:14:52.410Z,0.93
2018-04-10T17:17:20.017Z,1.00
2018-04-10T17:19:47.662Z,0.70
2018-04-10T17:22:15.323Z,0.80
2018-04-10T17:24:42.896Z,0.90
2018-04-10T17:27:10.573Z,1.03
2018-04-10T17:29:38.294Z,0.83
2018-04-10T17:32:05.933Z,0.80
2018-04-10T17:34:34.410Z,0.90
2018-04-10T17:37:02.036Z,0.90
2018-04-10T17:39:30.463Z,0.77
2018-04-10T17:41:58.164Z,0.90
2018-04-10T17:44:25.821Z,0.90
2018-04-10T17:46:53.812Z,0.70
2018-04-10T17:49:21.495Z,0.80
2018-04-10T17:51:49.122Z,0.93
2018-04-10T17:54:17.691Z,0.73
2018-04-10T17:56:45.253Z,0.90
2018-04-10T17:59:13.901Z,0.73
2018-04-10T18:01:41.898Z,0.77
2018-04-10T18:04:09.505Z,0.93
2018-04-10T18:06:37.160Z,0.90
2018-04-10T18:09:05.617Z,0.90
2018-04-10T18:11:33.217Z,0.80
2018-04-10T18:14:01.122Z,1.00
2018-04-10T18:16:28.756Z,1.00
2018-04-10T18:18:56.421Z,0.97
2018-04-10T18:21:24.040Z,0.90
2018-04-10T18:23:52.436Z,0.90
2018-04-10T18:26:20.024Z,0.93
2018-04-10T18:28:47.632Z,0.90
2018-04-10T18:31:16.054Z,0.70
2018-04-10T18:33:44.249Z,0.90
2018-04-10T18:36:12.581Z,0.80
2018-04-10T18:38:40.950Z,1.00
2018-04-10T18:41:09.123Z,0.80
2018-04-10T18:43:36.834Z,0.87
2018-04-10T18:46:04.528Z,0.83
2018-04-10T18:48:32.913Z,0.70
2018-04-10T18:51:01.326Z,1.00
2018-04-10T18:53:29.084Z,0.77
2018-04-10T18:55:56.683Z,1.00
2018-04-10T18:58:25.801Z,1.00
2018-04-10T19:00:53.393Z,0.80
2018-04-10T19:03:21.004Z,0.77
2018-04-10T19:05:48.606Z,0.80
2018-04-10T19:08:16.455Z,0.83
2018-04-10T19:10:44.069Z,1.30
2018-04-10T19:13:12.677Z,1.20
2018-04-10T19:15:41.036Z,0.60
2018-04-10T19:18:08.669Z,0.90
2018-04-10T19:20:37.111Z,0.90
2018-04-10T19:23:05.287Z,0.90
2018-04-10T19:25:32.944Z,0.80
2018-04-10T19:28:00.549Z,1.17
2018-04-10T19:30:28.254Z,1.00
2018-04-10T19:32:56.604Z,0.90
2018-04-10T19:35:24.950Z,0.90
2018-04-10T19:37:52.895Z,0.90
2018-04-10T19:40:21.413Z,0.80
2018-04-10T19:42:50.175Z,1.00
2018-04-10T19:45:19.994Z,0.60
2018-04-10T19:47:48.183Z,0.80
2018-04-10T19:50:16.870Z,0.80
2018-04-10T19:52:46.135Z,0.87
2018-04-10T19:55:16.243Z,1.00
2018-04-10T19:57:45.395Z,0.90
2018-04-10T20:00:14.101Z,0.80
2018-04-10T20:02:42.106Z,1.00
2018-04-10T20:05:10.554Z,1.00
2018-04-10T20:07:39.165Z,1.07
2018-04-10T20:10:07.581Z,0.77
2018-04-10T20:12:36.119Z,0.93
2018-04-10T20:15:05.062Z,0.87
2018-04-10T20:17:34.353Z,0.80
2018-04-10T20:20:01.982Z,0.90
2018-04-10T20:22:30.822Z,0.70
2018-04-10T20:24:59.854Z,0.90
2018-04-10T20:27:27.609Z,0.80
2018-04-10T20:29:55.787Z,1.10
2018-04-10T20:32:24.505Z,0.90
2018-04-10T20:34:53.006Z,0.73
2018-04-10T20:37:20.625Z,1.10
2018-04-10T20:39:48.738Z,0.80
2018-04-10T20:42:16.896Z,0.90
2018-04-10T20:44:45.240Z,0.70
2018-04-10T20:47:12.849Z,0.60
2018-04-10T20:49:41.254Z,1.10
2018-04-10T20:52:08.839Z,0.70
2018-04-10T20:54:37.385Z,0.93
2018-04-10T20:57:04.956Z,0.70
2018-04-10T20:59:32.600Z,1.00
2018-04-10T21:02:00.181Z,1.10
2018-04-10T21:04:28.773Z,0.90
2018-04-10T21:06:56.453Z,0.80
2018-04-10T21:09:24.837Z,1.00
2018-04-10T21:11:52.456Z,1.10
2018-04-10T21:14:20.214Z,0.87
2018-04-10T21:16:47.846Z,0.80
2018-04-10T21:19:16.189Z,1.07
2018-04-10T21:21:44.537Z,0.90
2018-04-10T21:24:12.113Z,0.90
2018-04-10T21:26:40.747Z,0.87
2018-04-10T21:29:08.395Z,0.80
2018-04-10T21:31:37.733Z,1.10
2018-04-10T21:34:05.387Z,1.00
2018-04-10T21:36:32.986Z,1.00
2018-04-10T21:39:00.989Z,0.87
2018-04-10T21:41:29.426Z,0.90
2018-04-10T21:43:57.878Z,1.00
2018-04-10T21:46:25.520Z,0.70
2018-04-10T21:48:53.404Z,0.87
2018-04-10T21:51:22.084Z,1.10
2018-04-10T21:53:49.882Z,1.00
2018-04-10T21:56:17.508Z,0.93
2018-04-10T21:58:45.174Z,0.80
2018-04-10T22:01:12.931Z,0.90
2018-04-10T22:03:40.700Z,1.00
2018-04-10T22:06:08.985Z,0.73
2018-04-10T22:08:37.344Z,0.83
2018-04-10T22:11:05.446Z,1.00
2018-04-10T22:13:34.262Z,0.90
2018-04-10T22:16:02.288Z,0.80
2018-04-10T22:18:30.542Z,0.80
2018-04-10T22:20:59.155Z,0.90
2018-04-10T22:23:28.029Z,0.80
2018-04-10T22:25:57.824Z,0.97
2018-04-10T22:28:24.181Z,1.23
2018-04-10T22:30:51.784Z,1.00
2018-04-10T22:33:20.800Z,0.70
2018-04-10T22:35:50.587Z,0.77
2018-04-10T22:38:18.762Z,0.90
2018-04-10T22:40:47.049Z,0.90
2018-04-10T22:43:15.331Z,0.70
2018-04-10T22:45:44.504Z,1.00
2018-04-10T22:48:13.584Z,0.90
2018-04-10T22:50:42.084Z,0.90
2018-04-10T22:53:10.555Z,0.70
2018-04-10T22:55:39.778Z,0.80
2018-04-10T22:58:07.717Z,1.00
2018-04-10T23:00:52.789Z,0.80
2018-04-10T23:03:21.600Z,0.73
2018-04-10T23:05:49.752Z,1.17
2018-04-10T23:08:18.286Z,1.00
2018-04-10T23:10:46.380Z,0.80
2018-04-10T23:13:14.797Z,0.90
2018-04-10T23:15:42.405Z,0.80
2018-04-10T23:18:11.672Z,0.80
2018-04-10T23:20:40.866Z,0.80
2018-04-10T23:23:08.889Z,0.80
2018-04-10T23:25:37.055Z,1.00
2018-04-10T23:28:05.527Z,1.00
2018-04-10T23:30:33.349Z,0.67
2018-04-10T23:33:00.983Z,0.87
2018-04-10T23:35:29.186Z,1.03
2018-04-10T23:37:57.862Z,0.90
2018-04-10T23:40:25.920Z,0.90
2018-04-10T23:42:54.418Z,1.07
2018-04-10T23:45:23.403Z,0.90
2018-04-10T23:47:51.763Z,0.93
2018-04-10T23:50:20.273Z,0.83
2018-04-10T23:52:49.562Z,1.07
2018-04-10T23:55:18.044Z,0.87
2018-04-10T23:57:46.931Z,1.00
